createdAt,value
2023-01-17T00:02:08.371Z,4.20
2023-01-17T00:05:08.541Z,4.20
2023-01-17T00:07:54.113Z,4.20
2023-01-17T00:10:24.384Z,4.20
2023-01-17T00:12:55.823Z,4.20
2023-01-17T00:15:24.617Z,4.20
2023-01-17T00:17:53.215Z,4.20
2023-01-17T00:20:40.880Z,4.20
2023-01-17T00:23:27.443Z,4.20
2023-01-17T00:26:04.405Z,4.30
2023-01-17T00:28:34.944Z,4.20
2023-01-17T00:31:02.049Z,4.20
2023-01-17T00:33:29.011Z,4.20
2023-01-17T00:35:57.979Z,4.30
2023-01-17T00:38:26.167Z,4.30
2023-01-17T00:40:53.525Z,4.30
2023-01-17T00:43:41.152Z,4.30
2023-01-17T00:46:28.236Z,4.30
2023-01-17T00:49:13.534Z,4.30
2023-01-17T00:51:59.055Z,4.40
2023-01-17T00:54:44.532Z,4.40
2023-01-17T00:57:30.101Z,4.40
2023-01-17T01:00:15.614Z,4.40
2023-01-17T01:03:02.283Z,4.40
2023-01-17T01:05:48.002Z,4.40
2023-01-17T01:08:39.742Z,4.40
2023-01-17T01:11:28.094Z,4.40
2023-01-17T01:14:14.057Z,4.40
2023-01-17T01:16:59.503Z,4.40
2023-01-17T01:19:46.515Z,4.40
2023-01-17T01:22:32.111Z,4.40
2023-01-17T01:25:17.803Z,4.40
2023-01-17T01:28:03.277Z,4.40
2023-01-17T01:30:48.782Z,4.40
2023-01-17T01:33:18.645Z,4.40
2023-01-17T01:35:49.423Z,4.40
2023-01-17T01:38:17.551Z,4.40
2023-01-17T01:40:47.141Z,4.50
2023-01-17T01:43:16.862Z,4.50
2023-01-17T01:45:50.143Z,4.40
2023-01-17T01:48:36.294Z,4.40
2023-01-17T01:51:09.611Z,4.40
2023-01-17T01:53:41.783Z,4.40
2023-01-17T01:56:13.150Z,4.40
2023-01-17T01:58:44.848Z,4.40
2023-01-17T02:01:13.496Z,4.40
2023-01-17T02:03:43.324Z,4.40
2023-01-17T02:06:26.295Z,4.40
2023-01-17T02:08:54.823Z,4.40
2023-01-17T02:11:23.595Z,4.50
2023-01-17T02:13:51.563Z,4.40
2023-01-17T02:16:33.285Z,4.40
2023-01-17T02:19:19.770Z,4.40
2023-01-17T02:22:00.454Z,4.40
2023-01-17T02:25:03.427Z,4.40
2023-01-17T02:27:48.275Z,4.40
2023-01-17T02:30:32.906Z,4.40
2023-01-17T02:33:17.528Z,4.40
2023-01-17T02:35:55.729Z,4.40
2023-01-17T02:38:35.297Z,4.40
2023-01-17T02:41:07.885Z,4.40
2023-01-17T02:43:38.158Z,4.40
2023-01-17T02:46:09.639Z,4.40
2023-01-17T02:48:38.705Z,4.40
2023-01-17T02:51:28.374Z,4.40
2023-01-17T02:54:12.519Z,4.40
2023-01-17T02:56:48.983Z,4.40
2023-01-17T02:59:34.520Z,4.40
2023-01-17T03:02:15.367Z,4.40
2023-01-17T03:04:48.193Z,4.40
2023-01-17T03:07:19.335Z,4.30
2023-01-17T03:09:53.538Z,4.40
2023-01-17T03:12:21.740Z,4.40
2023-01-17T03:14:49.773Z,4.40
2023-01-17T03:17:19.213Z,4.40
2023-01-17T03:19:47.166Z,4.40
2023-01-17T03:22:15.105Z,4.40
2023-01-17T03:24:43.087Z,4.30
2023-01-17T03:27:11.037Z,4.30
2023-01-17T03:29:38.936Z,4.30
2023-01-17T03:32:07.164Z,4.30
2023-01-17T03:34:36.424Z,4.30
2023-01-17T03:37:04.327Z,4.30
2023-01-17T03:39:32.280Z,4.30
2023-01-17T03:42:00.195Z,4.30
2023-01-17T03:44:28.136Z,4.30
2023-01-17T03:46:56.098Z,4.30
2023-01-17T03:49:23.988Z,4.30
2023-01-17T03:51:53.556Z,4.20
2023-01-17T03:54:21.510Z,4.30
2023-01-17T03:56:49.433Z,4.20
2023-01-17T03:59:17.356Z,4.20
2023-01-17T04:01:45.364Z,4.20
2023-01-17T04:04:13.361Z,4.20
2023-01-17T04:06:41.274Z,4.20
2023-01-17T04:09:10.589Z,4.10
2023-01-17T04:11:38.504Z,4.20
2023-01-17T04:14:06.426Z,4.20
2023-01-17T04:16:34.810Z,4.20
2023-01-17T04:19:02.989Z,4.20
2023-01-17T04:21:31.000Z,4.20
2023-01-17T04:23:58.902Z,4.20
2023-01-17T04:26:28.259Z,4.20
2023-01-17T04:28:56.193Z,4.20
2023-01-17T04:31:24.137Z,4.20
2023-01-17T04:33:52.084Z,4.20
2023-01-17T04:36:20.022Z,4.20
2023-01-17T04:38:47.930Z,4.20
2023-01-17T04:41:15.856Z,4.20
2023-01-17T04:43:45.131Z,4.20
2023-01-17T04:46:13.117Z,4.20
2023-01-17T04:48:41.115Z,4.20
2023-01-17T04:51:09.066Z,4.20
2023-01-17T04:53:37.035Z,4.20
2023-01-17T04:56:05.426Z,4.20
2023-01-17T04:58:34.078Z,4.20
2023-01-17T05:01:07.614Z,4.20
2023-01-17T05:03:35.962Z,4.20
2023-01-17T05:06:04.052Z,4.20
2023-01-17T05:08:31.986Z,4.20
2023-01-17T05:10:59.919Z,4.20
2023-01-17T05:13:27.973Z,4.20
2023-01-17T05:15:57.614Z,4.20
2023-01-17T05:18:26.980Z,4.20
2023-01-17T05:20:54.920Z,4.10
2023-01-17T05:23:22.830Z,4.30
2023-01-17T05:25:50.731Z,3.80
2023-01-17T05:28:18.687Z,4.00
2023-01-17T05:30:46.670Z,4.00
2023-01-17T05:33:14.657Z,4.00
2023-01-17T05:35:44.079Z,4.00
2023-01-17T05:38:11.994Z,4.00
2023-01-17T05:40:39.942Z,4.00
2023-01-17T05:43:07.899Z,4.00
2023-01-17T05:45:35.984Z,4.00
2023-01-17T05:48:05.314Z,4.00
2023-01-17T05:50:35.070Z,4.00
2023-01-17T05:53:06.334Z,3.90
2023-01-17T05:55:35.181Z,3.90
2023-01-17T05:58:03.865Z,3.90
2023-01-17T06:00:32.772Z,3.90
2023-01-17T06:03:01.847Z,4.00
2023-01-17T06:05:30.385Z,4.00
2023-01-17T06:07:58.738Z,4.70
2023-01-17T06:10:29.440Z,4.00
2023-01-17T06:13:06.423Z,4.00
2023-01-17T06:15:36.158Z,4.00
2023-01-17T06:18:08.016Z,4.00
2023-01-17T06:20:36.532Z,4.00
2023-01-17T06:23:06.314Z,4.00
2023-01-17T06:25:39.350Z,4.00
2023-01-17T06:28:07.839Z,4.00
2023-01-17T06:30:36.395Z,4.00
2023-01-17T06:33:04.713Z,3.80
2023-01-17T06:35:33.158Z,4.20
2023-01-17T06:38:01.149Z,3.80
2023-01-17T06:40:30.634Z,4.00
2023-01-17T06:43:02.590Z,3.90
2023-01-17T06:45:31.542Z,4.00
2023-01-17T06:48:00.641Z,3.80
2023-01-17T06:50:28.683Z,3.70
2023-01-17T06:52:59.578Z,3.70
2023-01-17T06:55:28.783Z,3.90
2023-01-17T06:57:57.088Z,4.00
2023-01-17T07:00:26.887Z,3.60
2023-01-17T07:05:23.526Z,3.90
2023-01-17T07:07:51.512Z,3.80
2023-01-17T07:10:19.575Z,3.80
2023-01-17T07:12:47.548Z,3.80
2023-01-17T07:15:15.581Z,3.80
2023-01-17T07:17:44.964Z,3.80
2023-01-17T07:20:13.541Z,3.80
2023-01-17T07:22:45.271Z,3.80
2023-01-17T07:25:13.384Z,3.80
2023-01-17T07:27:41.326Z,3.80
2023-01-17T07:30:10.732Z,3.80
2023-01-17T07:32:38.806Z,3.80
2023-01-17T07:35:08.984Z,3.80
2023-01-17T07:37:36.970Z,3.90
2023-01-17T07:40:05.509Z,3.90
2023-01-17T07:42:33.567Z,3.90
2023-01-17T07:45:02.218Z,3.90
2023-01-17T07:47:30.249Z,3.90
2023-01-17T07:49:58.165Z,3.90
2023-01-17T07:52:27.434Z,3.90
2023-01-17T07:54:55.363Z,3.90
2023-01-17T07:57:23.527Z,3.90
2023-01-17T07:59:52.339Z,3.90
2023-01-17T08:02:22.148Z,3.90
2023-01-17T08:04:51.000Z,3.90
2023-01-17T08:07:18.923Z,3.90
2023-01-17T08:09:50.141Z,4.00
2023-01-17T08:12:18.463Z,4.00
2023-01-17T08:14:46.383Z,4.00
2023-01-17T08:17:16.428Z,4.00
2023-01-17T08:19:44.793Z,4.00
2023-01-17T08:22:13.126Z,4.00
2023-01-17T08:24:41.923Z,4.00
2023-01-17T08:27:11.414Z,4.00
2023-01-17T08:29:42.111Z,3.90
2023-01-17T08:32:10.101Z,4.00
2023-01-17T08:34:38.050Z,4.00
2023-01-17T08:37:05.973Z,3.90
2023-01-17T08:39:34.163Z,3.90
2023-01-17T08:42:02.138Z,4.00
2023-01-17T08:44:31.545Z,3.90
2023-01-17T08:46:59.517Z,3.70
2023-01-17T08:49:28.323Z,3.90
2023-01-17T08:51:56.330Z,3.90
2023-01-17T08:54:24.613Z,3.90
2023-01-17T08:56:55.674Z,3.90
2023-01-17T08:59:23.712Z,3.80
2023-01-17T09:01:58.236Z,4.00
2023-01-17T09:04:26.307Z,3.70
2023-01-17T09:06:54.262Z,3.80
2023-01-17T09:09:22.157Z,4.50
2023-01-17T09:11:50.095Z,4.00
2023-01-17T09:14:18.019Z,4.00
2023-01-17T09:16:46.017Z,4.10
2023-01-17T09:19:15.330Z,4.10
2023-01-17T09:21:43.571Z,4.10
2023-01-17T09:24:11.550Z,4.10
2023-01-17T09:26:39.823Z,4.20
2023-01-17T09:29:07.799Z,4.30
2023-01-17T09:31:35.742Z,4.30
2023-01-17T09:34:03.688Z,4.30
2023-01-17T09:36:34.011Z,4.40
2023-01-17T09:39:03.093Z,4.40
2023-01-17T09:41:33.033Z,4.40
2023-01-17T09:44:07.295Z,4.40
2023-01-17T09:46:42.263Z,4.40
2023-01-17T09:49:15.778Z,4.40
2023-01-17T09:51:46.174Z,4.40
2023-01-17T09:54:21.761Z,4.40
2023-01-17T09:56:56.691Z,4.50
2023-01-17T09:59:35.259Z,4.60
2023-01-17T10:02:12.949Z,4.60
2023-01-17T10:04:51.378Z,4.70
2023-01-17T10:07:33.454Z,4.80
2023-01-17T10:10:14.151Z,5.10
2023-01-17T10:12:49.377Z,5.10
2023-01-17T10:15:54.652Z,4.90
2023-01-17T10:18:47.415Z,5.00
2023-01-17T10:21:22.217Z,5.00
2023-01-17T10:24:16.459Z,5.00
2023-01-17T10:26:47.196Z,5.00
2023-01-17T10:29:20.248Z,5.00
2023-01-17T10:31:52.395Z,5.10
2023-01-17T10:34:22.976Z,5.10
2023-01-17T10:36:57.429Z,5.10
2023-01-17T10:39:29.554Z,5.20
2023-01-17T10:42:00.297Z,5.20
2023-01-17T10:44:35.669Z,5.60
2023-01-17T10:47:08.224Z,5.40
2023-01-17T10:49:39.955Z,5.50
2023-01-17T10:52:14.163Z,5.50
2023-01-17T10:55:06.393Z,5.50
2023-01-17T10:57:40.374Z,5.50
2023-01-17T11:00:33.390Z,5.60
2023-01-17T11:03:02.883Z,5.60
2023-01-17T11:05:32.761Z,5.60
2023-01-17T11:08:02.571Z,5.60
2023-01-17T11:10:41.264Z,5.70
2023-01-17T11:13:23.913Z,5.70
2023-01-17T11:15:57.651Z,5.80
2023-01-17T11:18:28.717Z,5.80
2023-01-17T11:21:12.196Z,5.80
2023-01-17T11:23:42.373Z,5.70
2023-01-17T11:26:13.783Z,5.70
2023-01-17T11:28:42.544Z,5.70
2023-01-17T11:31:26.138Z,5.70
2023-01-17T11:34:09.579Z,5.70
2023-01-17T11:36:37.524Z,5.80
2023-01-17T11:39:07.752Z,5.90
2023-01-17T11:41:39.172Z,5.90
2023-01-17T11:44:23.624Z,6.10
2023-01-17T11:47:13.987Z,6.10
2023-01-17T11:49:43.534Z,6.10
2023-01-17T11:52:12.564Z,6.10
2023-01-17T11:54:42.545Z,6.10
2023-01-17T11:57:21.981Z,6.00
2023-01-17T11:59:50.448Z,6.00
2023-01-17T12:02:44.055Z,6.00
2023-01-17T12:05:34.512Z,6.00
2023-01-17T12:08:15.357Z,6.00
2023-01-17T12:10:53.314Z,6.00
2023-01-17T12:13:50.827Z,6.20
2023-01-17T12:16:32.939Z,6.40
2023-01-17T12:19:16.164Z,6.60
2023-01-17T12:21:53.769Z,6.70
2023-01-17T12:24:45.811Z,6.70
2023-01-17T12:27:22.923Z,6.60
2023-01-17T12:30:00.846Z,6.60
2023-01-17T12:32:50.555Z,6.50
2023-01-17T12:35:22.084Z,6.50
2023-01-17T12:38:04.417Z,6.40
2023-01-17T12:40:38.196Z,6.40
2023-01-17T12:43:12.624Z,6.30
2023-01-17T12:45:44.803Z,6.30
2023-01-17T12:48:16.945Z,6.30
2023-01-17T12:50:51.757Z,6.20
2023-01-17T12:53:30.425Z,6.20
2023-01-17T12:56:04.111Z,6.20
2023-01-17T12:58:39.382Z,6.20
2023-01-17T13:01:19.122Z,6.20
2023-01-17T13:03:57.724Z,6.20
2023-01-17T13:06:32.675Z,6.10
2023-01-17T13:09:04.848Z,6.10
2023-01-17T13:11:39.067Z,6.10
2023-01-17T13:14:10.343Z,6.00
2023-01-17T13:16:42.811Z,6.00
2023-01-17T13:19:19.318Z,6.00
2023-01-17T13:21:49.022Z,6.00
2023-01-17T13:24:27.726Z,6.00
2023-01-17T13:27:24.934Z,6.00
2023-01-17T13:30:05.559Z,6.00
2023-01-17T13:32:57.229Z,6.00
2023-01-17T13:35:42.725Z,6.00
2023-01-17T13:38:28.945Z,6.00
2023-01-17T13:41:01.419Z,6.00
2023-01-17T13:43:31.914Z,6.00
2023-01-17T13:46:03.280Z,6.00
2023-01-17T13:48:37.224Z,5.90
2023-01-17T13:51:06.237Z,6.00
2023-01-17T13:53:59.015Z,5.90
2023-01-17T13:56:33.312Z,5.90
2023-01-17T13:59:31.036Z,5.90
2023-01-17T14:01:59.192Z,5.90
2023-01-17T14:05:08.084Z,5.90
2023-01-17T14:07:41.306Z,5.90
2023-01-17T14:10:30.003Z,5.90
2023-01-17T14:12:58.954Z,5.90
2023-01-17T14:15:28.746Z,6.00
2023-01-17T14:17:59.585Z,5.80
2023-01-17T14:21:10.637Z,5.80
2023-01-17T14:23:50.676Z,5.80
2023-01-17T14:26:45.707Z,5.80
2023-01-17T14:29:57.738Z,5.80
2023-01-17T14:32:29.406Z,5.80
2023-01-17T14:34:58.194Z,5.70
2023-01-17T14:37:37.933Z,5.70
2023-01-17T14:40:16.789Z,5.70
2023-01-17T14:42:45.863Z,5.70
2023-01-17T14:45:18.748Z,5.70
2023-01-17T14:47:46.884Z,5.70
2023-01-17T14:50:23.929Z,5.70
2023-01-17T14:55:53.252Z,5.70
2023-01-17T14:58:23.483Z,5.50
2023-01-17T15:00:53.625Z,5.50
2023-01-17T15:03:22.626Z,5.40
2023-01-17T15:05:53.136Z,5.40
2023-01-17T15:08:23.308Z,5.30
2023-01-17T15:10:56.114Z,5.30
2023-01-17T15:13:43.113Z,5.40
2023-01-17T15:16:20.880Z,5.30
2023-01-17T15:18:49.287Z,5.30
2023-01-17T15:21:20.488Z,5.30
2023-01-17T15:23:51.581Z,5.30
2023-01-17T15:26:23.190Z,5.30
2023-01-17T15:28:51.855Z,5.30
2023-01-17T15:31:24.513Z,5.30
2023-01-17T15:33:57.978Z,5.30
2023-01-17T15:36:32.474Z,5.30
2023-01-17T15:39:03.400Z,5.30
2023-01-17T15:41:35.214Z,5.30
2023-01-17T15:44:03.340Z,5.30
2023-01-17T15:46:39.752Z,5.30
2023-01-17T15:49:17.299Z,5.30
2023-01-17T15:51:52.139Z,5.30
2023-01-17T15:54:47.555Z,5.30
2023-01-17T15:57:28.100Z,5.30
2023-01-17T15:59:59.585Z,5.30
2023-01-17T16:02:43.419Z,5.30
2023-01-17T16:05:43.491Z,5.30
2023-01-17T16:08:33.538Z,5.30
2023-01-17T16:11:06.394Z,5.30
2023-01-17T16:13:38.647Z,5.30
2023-01-17T16:16:18.920Z,5.30
2023-01-17T16:18:47.984Z,5.30
2023-01-17T16:21:23.699Z,5.20
2023-01-17T16:23:51.895Z,5.20
2023-01-17T16:26:20.098Z,5.10
2023-01-17T16:28:49.875Z,5.10
2023-01-17T16:31:18.448Z,5.10
2023-01-17T16:33:46.932Z,5.10
2023-01-17T16:36:16.621Z,5.10
2023-01-17T16:38:45.927Z,5.10
2023-01-17T16:41:14.211Z,5.10
2023-01-17T16:43:42.279Z,5.10
2023-01-17T16:46:13.293Z,5.20
2023-01-17T16:48:41.309Z,5.20
2023-01-17T16:51:09.517Z,5.20
2023-01-17T16:53:37.900Z,5.20
2023-01-17T16:56:13.700Z,5.10
2023-01-17T16:58:42.183Z,5.10
2023-01-17T17:01:15.422Z,5.10
2023-01-17T17:03:43.855Z,5.10
2023-01-17T17:06:12.560Z,5.10
2023-01-17T17:08:40.825Z,5.00
2023-01-17T17:11:16.524Z,5.00
2023-01-17T17:13:46.011Z,4.90
2023-01-17T17:16:19.776Z,4.80
2023-01-17T17:18:55.600Z,4.80
2023-01-17T17:21:23.761Z,4.80
2023-01-17T17:23:56.772Z,4.70
2023-01-17T17:26:26.696Z,4.70
2023-01-17T17:28:54.884Z,4.70
2023-01-17T17:31:25.012Z,4.70
2023-01-17T17:33:53.102Z,4.60
2023-01-17T17:36:21.100Z,4.60
2023-01-17T17:38:51.748Z,4.60
2023-01-17T17:41:21.028Z,4.50
2023-01-17T17:43:49.357Z,4.50
2023-01-17T17:46:17.380Z,4.30
2023-01-17T17:48:46.751Z,4.40
2023-01-17T17:51:26.455Z,4.30
2023-01-17T17:53:55.148Z,4.30
2023-01-17T17:56:24.407Z,4.20
2023-01-17T17:58:52.337Z,4.20
2023-01-17T18:01:22.848Z,4.20
2023-01-17T18:03:52.529Z,4.20
2023-01-17T18:06:21.540Z,4.10
2023-01-17T18:08:51.915Z,4.10
2023-01-17T18:11:22.614Z,4.00
2023-01-17T18:13:52.037Z,4.00
2023-01-17T18:16:22.179Z,3.90
2023-01-17T18:18:53.822Z,3.90
2023-01-17T18:21:23.788Z,3.90
2023-01-17T18:23:54.404Z,3.80
2023-01-17T18:26:24.995Z,3.80
2023-01-17T18:28:54.177Z,3.80
2023-01-17T18:31:24.275Z,3.80
2023-01-17T18:33:54.502Z,3.70
2023-01-17T18:36:23.420Z,3.70
2023-01-17T18:38:52.137Z,3.70
2023-01-17T18:41:22.115Z,3.70
2023-01-17T18:43:50.076Z,3.60
2023-01-17T18:46:19.085Z,3.60
2023-01-17T18:48:47.366Z,3.60
2023-01-17T18:51:18.411Z,3.50
2023-01-17T18:53:47.886Z,3.50
2023-01-17T18:56:17.264Z,3.50
2023-01-17T18:58:47.527Z,3.40
2023-01-17T19:01:17.630Z,3.40
2023-01-17T19:03:47.704Z,3.30
2023-01-17T19:06:19.293Z,3.30
2023-01-17T19:08:48.445Z,3.30
2023-01-17T19:11:17.325Z,3.30
2023-01-17T19:13:45.376Z,3.30
2023-01-17T19:16:15.430Z,3.40
2023-01-17T19:18:43.451Z,3.40
2023-01-17T19:21:12.733Z,3.40
2023-01-17T19:23:43.292Z,3.30
2023-01-17T19:26:12.454Z,3.30
2023-01-17T19:28:41.290Z,3.20
2023-01-17T19:31:11.044Z,3.20
2023-01-17T19:33:40.541Z,3.10
2023-01-17T19:36:10.501Z,3.10
2023-01-17T19:38:39.264Z,3.00
2023-01-17T19:41:14.995Z,3.00
2023-01-17T19:43:43.797Z,3.00
2023-01-17T19:46:12.372Z,2.90
2023-01-17T19:48:41.343Z,2.90
2023-01-17T19:51:11.695Z,2.80
2023-01-17T19:53:40.706Z,2.80
2023-01-17T19:56:11.714Z,2.80
2023-01-17T19:58:39.930Z,2.70
2023-01-17T20:01:09.703Z,2.70
2023-01-17T20:03:38.496Z,2.70
2023-01-17T20:06:07.698Z,2.60
2023-01-17T20:08:36.328Z,2.60
2023-01-17T20:11:05.637Z,2.50
2023-01-17T20:13:35.217Z,2.50
2023-01-17T20:16:03.832Z,2.40
2023-01-17T20:18:32.753Z,2.40
2023-01-17T20:21:04.099Z,2.40
2023-01-17T20:23:35.328Z,2.30
2023-01-17T20:26:04.750Z,2.30
2023-01-17T20:28:35.158Z,2.20
2023-01-17T20:31:08.917Z,2.10
2023-01-17T20:33:36.911Z,2.10
2023-01-17T20:36:10.570Z,2.00
2023-01-17T20:38:44.705Z,1.90
2023-01-17T20:41:14.115Z,1.90
2023-01-17T20:43:44.381Z,1.90
2023-01-17T20:46:13.250Z,1.80
2023-01-17T20:48:45.491Z,1.80
2023-01-17T20:51:13.973Z,1.80
2023-01-17T20:53:43.427Z,1.80
2023-01-17T20:56:13.624Z,1.70
2023-01-17T20:58:43.857Z,1.70
2023-01-17T21:01:13.774Z,1.70
2023-01-17T21:03:42.363Z,1.60
2023-01-17T21:06:13.697Z,1.60
2023-01-17T21:08:43.735Z,1.60
2023-01-17T21:11:13.611Z,1.50
2023-01-17T21:13:43.182Z,1.50
2023-01-17T21:16:14.244Z,1.50
2023-01-17T21:18:43.164Z,1.50
2023-01-17T21:21:14.758Z,1.40
2023-01-17T21:23:43.961Z,1.40
2023-01-17T21:26:13.616Z,1.40
2023-01-17T21:28:45.143Z,1.40
2023-01-17T21:31:20.449Z,1.40
2023-01-17T21:33:48.883Z,1.30
2023-01-17T21:36:16.795Z,1.30
2023-01-17T21:38:48.037Z,1.30
2023-01-17T21:41:16.007Z,1.30
2023-01-17T21:43:45.347Z,1.30
2023-01-17T21:46:13.300Z,1.30
2023-01-17T21:48:41.679Z,1.20
2023-01-17T21:51:10.003Z,1.20
2023-01-17T21:53:39.395Z,1.20
2023-01-17T21:56:27.257Z,1.10
2023-01-17T21:58:58.042Z,1.10
2023-01-17T22:01:27.532Z,1.10
2023-01-17T22:03:57.289Z,1.10
2023-01-17T22:06:27.411Z,1.00
2023-01-17T22:08:55.381Z,1.00
2023-01-17T22:11:25.239Z,1.00
2023-01-17T22:13:53.882Z,1.00
2023-01-17T22:16:25.780Z,0.90
2023-01-17T22:18:53.803Z,0.90
2023-01-17T22:21:24.042Z,0.90
2023-01-17T22:23:53.745Z,0.90
2023-01-17T22:26:23.153Z,0.80
2023-01-17T22:28:51.360Z,0.80
2023-01-17T22:31:22.427Z,0.80
2023-01-17T22:33:56.465Z,2.30
2023-01-17T22:36:25.651Z,0.60
2023-01-17T22:38:54.104Z,0.60
2023-01-17T22:41:23.709Z,0.80
2023-01-17T22:43:53.440Z,0.80
2023-01-17T22:46:23.027Z,0.90
2023-01-17T22:48:51.228Z,0.70
2023-01-17T22:51:22.104Z,0.70
2023-01-17T22:53:52.422Z,0.70
2023-01-17T22:56:22.503Z,0.70
2023-01-17T22:58:50.859Z,0.70
2023-01-17T23:01:20.521Z,0.70
2023-01-17T23:03:52.938Z,0.70
2023-01-17T23:06:24.901Z,0.70
2023-01-17T23:08:55.791Z,0.60
2023-01-17T23:11:42.968Z,0.60
2023-01-17T23:14:14.845Z,0.60
2023-01-17T23:17:02.482Z,0.50
2023-01-17T23:19:32.656Z,0.50
2023-01-17T23:22:19.233Z,0.50
2023-01-17T23:24:50.267Z,0.50
2023-01-17T23:27:38.409Z,0.40
2023-01-17T23:30:11.469Z,0.40
2023-01-17T23:32:39.979Z,0.40
2023-01-17T23:35:08.523Z,0.40
2023-01-17T23:37:55.280Z,0.40
2023-01-17T23:40:23.658Z,0.40
2023-01-17T23:43:09.080Z,0.40
2023-01-17T23:45:37.949Z,0.40
2023-01-17T23:48:09.906Z,0.40
2023-01-17T23:50:38.230Z,0.30
2023-01-17T23:53:08.085Z,0.30
2023-01-17T23:55:37.337Z,0.30
2023-01-17T23:58:06.057Z,0.30
